20.9°F
Current conditions from King Hill
Updated every 5 minutes
 
  Friday November 28, 2014

Station Historical Data
Daily Summary for June 17, 2012 Units:  Both    English   Metric
« Previous Day
Next Day »
Daily Weekly Monthly Yearly Custom
  High: Low: Average:
Temperature: 79.6 °F /  26.4 °C 58.9 °F /  14.9 °C 68.4 °F /  20.2 °C
Dew Point: 65.3 °F /  18.5 °C 52.8 °F /  11.6 °C 58.1 °F /  14.5 °C
Humidity: 85% 53% 71%
Wind Speed: 8.0mph /  12.9km/h - 3.2mph /  5.1km/h
Wind Gust: 18.0mph /  29km/h - -
Wind- - SSW
Pressure: 30.12 in /  1019.9 hPa 29.93 in /  1013.4 hPa -
Precipitation: 0.00 in /  0 mm    
Historical Graphs
 
 
Tabular Data for June 17, 2012
Time Temperature Dew Point Pressure Wind Wind Speed Wind Gust Humidity Daily Rainfall
00:00 59.3 °F /  15.2 °C 54.8 °F /  12.7 °C 30.12in /  1019.9hPa Calm   1.0mph /  1.6km/h 85% 0.00in /  0mm
00:05 59.3 °F /  15.2 °C 54.8 °F /  12.7 °C 30.12in /  1019.9hPa Calm   1.0mph /  1.6km/h 85% 0.00in /  0mm
00:10 59.4 °F /  15.2 °C 54.9 °F /  12.7 °C 30.12in /  1019.9hPa Calm   1.0mph /  1.6km/h 85% 0.00in /  0mm
00:15 59.2 °F /  15.1 °C 54.7 °F /  12.6 °C 30.12in /  1019.9hPa Calm   1.0mph /  1.6km/h 85% 0.00in /  0mm
00:20 59.1 °F /  15.1 °C 54.6 °F /  12.6 °C 30.12in /  1019.9hPa Calm   1.0mph /  1.6km/h 85% 0.00in /  0mm
00:24 59.0 °F /  15 °C 54.5 °F /  12.5 °C 30.12in /  1019.9hPa SW 1.0mph /  1.6km/h 4.0mph /  6.4km/h 85% 0.00in /  0mm
00:30 59.0 °F /  15 °C 54.5 °F /  12.5 °C 30.11in /  1019.5hPa Calm   4.0mph /  6.4km/h 85% 0.00in /  0mm
00:35 59.0 °F /  15 °C 54.5 °F /  12.5 °C 30.11in /  1019.5hPa Calm   2.0mph /  3.2km/h 85% 0.00in /  0mm
00:40 59.0 °F /  15 °C 54.5 °F /  12.5 °C 30.11in /  1019.5hPa Calm   2.0mph /  3.2km/h 85% 0.00in /  0mm
00:45 59.0 °F /  15 °C 54.5 °F /  12.5 °C 30.11in /  1019.5hPa Calm     85% 0.00in /  0mm
00:50 59.0 °F /  15 °C 54.5 °F /  12.5 °C 30.11in /  1019.5hPa Calm     85% 0.00in /  0mm
00:55 59.0 °F /  15 °C 54.5 °F /  12.5 °C 30.11in /  1019.5hPa Calm   3.0mph /  4.8km/h 85% 0.00in /  0mm
00:59 59.1 °F /  15.1 °C 54.6 °F /  12.6 °C 30.11in /  1019.5hPa Calm   3.0mph /  4.8km/h 85% 0.00in /  0mm
01:05 59.4 °F /  15.2 °C 54.9 °F /  12.7 °C 30.11in /  1019.5hPa Calm   2.0mph /  3.2km/h 85% 0.00in /  0mm
01:10 59.6 °F /  15.3 °C 54.8 °F /  12.7 °C 30.11in /  1019.5hPa Calm   2.0mph /  3.2km/h 84% 0.00in /  0mm
01:15 59.7 °F /  15.4 °C 54.9 °F /  12.7 °C 30.11in /  1019.5hPa Calm   2.0mph /  3.2km/h 84% 0.00in /  0mm
01:19 59.9 °F /  15.5 °C 54.7 °F /  12.6 °C 30.11in /  1019.5hPa Calm   3.0mph /  4.8km/h 83% 0.00in /  0mm
01:25 60.1 °F /  15.6 °C 54.9 °F /  12.7 °C 30.11in /  1019.5hPa Calm   3.0mph /  4.8km/h 83% 0.00in /  0mm
01:30 60.2 °F /  15.7 °C 55.0 °F /  12.8 °C 30.11in /  1019.5hPa SSW 1.0mph /  1.6km/h 4.0mph /  6.4km/h 83% 0.00in /  0mm
01:35 60.3 °F /  15.7 °C 54.8 °F /  12.7 °C 30.10in /  1019.2hPa Calm   5.0mph /  8km/h 82% 0.00in /  0mm
01:39 60.5 °F /  15.8 °C 55.0 °F /  12.8 °C 30.11in /  1019.5hPa Calm   5.0mph /  8km/h 82% 0.00in /  0mm
01:45 60.7 °F /  15.9 °C 54.8 °F /  12.7 °C 30.10in /  1019.2hPa SSW 1.0mph /  1.6km/h 4.0mph /  6.4km/h 81% 0.00in /  0mm
01:50 61.1 °F /  16.2 °C 55.2 °F /  12.9 °C 30.10in /  1019.2hPa SSW 1.0mph /  1.6km/h 6.0mph /  9.7km/h 81% 0.00in /  0mm
01:54 61.1 °F /  16.2 °C 54.9 °F /  12.7 °C 30.10in /  1019.2hPa Calm   6.0mph /  9.7km/h 80% 0.00in /  0mm
01:59 61.1 °F /  16.2 °C 54.9 °F /  12.7 °C 30.10in /  1019.2hPa SW 1.0mph /  1.6km/h 4.0mph /  6.4km/h 80% 0.00in /  0mm
02:05 61.3 °F /  16.3 °C 55.1 °F /  12.8 °C 30.10in /  1019.2hPa Calm   5.0mph /  8km/h 80% 0.00in /  0mm
02:10 61.6 °F /  16.4 °C 55.4 °F /  13 °C 30.10in /  1019.2hPa South 1.0mph /  1.6km/h 7.0mph /  11.3km/h 80% 0.00in /  0mm
02:15 61.7 °F /  16.5 °C 55.1 °F /  12.8 °C 30.10in /  1019.2hPa Calm   7.0mph /  11.3km/h 79% 0.00in /  0mm
02:19 61.7 °F /  16.5 °C 55.1 °F /  12.8 °C 30.10in /  1019.2hPa Calm   4.0mph /  6.4km/h 79% 0.00in /  0mm
02:25 61.5 °F /  16.4 °C 54.9 °F /  12.7 °C 30.10in /  1019.2hPa Calm   4.0mph /  6.4km/h 79% 0.00in /  0mm
02:30 61.3 °F /  16.3 °C 54.7 °F /  12.6 °C 30.11in /  1019.5hPa SW 1.0mph /  1.6km/h 5.0mph /  8km/h 79% 0.00in /  0mm
02:35 61.1 °F /  16.2 °C 54.9 °F /  12.7 °C 30.11in /  1019.5hPa SW 1.0mph /  1.6km/h 5.0mph /  8km/h 80% 0.00in /  0mm
02:39 61.0 °F /  16.1 °C 54.8 °F /  12.7 °C 30.11in /  1019.5hPa Calm   3.0mph /  4.8km/h 80% 0.00in /  0mm
02:45 60.8 °F /  16 °C 54.6 °F /  12.6 °C 30.10in /  1019.2hPa Calm   3.0mph /  4.8km/h 80% 0.00in /  0mm
02:50 60.6 °F /  15.9 °C 54.4 °F /  12.4 °C 30.10in /  1019.2hPa Calm   2.0mph /  3.2km/h 80% 0.00in /  0mm
02:54 60.5 °F /  15.8 °C 54.3 °F /  12.4 °C 30.10in /  1019.2hPa SW 1.0mph /  1.6km/h 4.0mph /  6.4km/h 80% 0.00in /  0mm
02:59 60.5 °F /  15.8 °C 54.3 °F /  12.4 °C 30.10in /  1019.2hPa Calm   4.0mph /  6.4km/h 80% 0.00in /  0mm
03:05 60.4 °F /  15.8 °C 54.2 °F /  12.3 °C 30.10in /  1019.2hPa SW 2.0mph /  3.2km/h 6.0mph /  9.7km/h 80% 0.00in /  0mm
03:09 60.4 °F /  15.8 °C 54.2 °F /  12.3 °C 30.10in /  1019.2hPa SW 1.0mph /  1.6km/h 6.0mph /  9.7km/h 80% 0.00in /  0mm
03:14 60.3 °F /  15.7 °C 54.1 °F /  12.3 °C 30.10in /  1019.2hPa SSW 1.0mph /  1.6km/h 5.0mph /  8km/h 80% 0.00in /  0mm
03:20 60.2 °F /  15.7 °C 54.0 °F /  12.2 °C 30.10in /  1019.2hPa Calm   6.0mph /  9.7km/h 80% 0.00in /  0mm
03:25 60.2 °F /  15.7 °C 54.0 °F /  12.2 °C 30.10in /  1019.2hPa SSW 1.0mph /  1.6km/h 6.0mph /  9.7km/h 80% 0.00in /  0mm
03:35 60.1 °F /  15.6 °C 53.9 °F /  12.2 °C 30.10in /  1019.2hPa Calm   5.0mph /  8km/h 80% 0.00in /  0mm
03:40 59.9 °F /  15.5 °C 53.7 °F /  12.1 °C 30.10in /  1019.2hPa SSW 1.0mph /  1.6km/h 5.0mph /  8km/h 80% 0.00in /  0mm
03:44 59.8 °F /  15.4 °C 53.6 °F /  12 °C 30.10in /  1019.2hPa SW 1.0mph /  1.6km/h 5.0mph /  8km/h 80% 0.00in /  0mm
03:50 59.7 °F /  15.4 °C 53.5 °F /  11.9 °C 30.10in /  1019.2hPa SSW 1.0mph /  1.6km/h 5.0mph /  8km/h 80% 0.00in /  0mm
03:55 59.6 °F /  15.3 °C 53.4 °F /  11.9 °C 30.10in /  1019.2hPa SSW 1.0mph /  1.6km/h 6.0mph /  9.7km/h 80% 0.00in /  0mm
03:59 59.6 °F /  15.3 °C 53.4 °F /  11.9 °C 30.10in /  1019.2hPa SSW 1.0mph /  1.6km/h 6.0mph /  9.7km/h 80% 0.00in /  0mm
04:05 59.5 °F /  15.3 °C 53.3 °F /  11.8 °C 30.09in /  1018.8hPa SSW 1.0mph /  1.6km/h 6.0mph /  9.7km/h 80% 0.00in /  0mm
04:10 59.6 °F /  15.3 °C 53.4 °F /  11.9 °C 30.09in /  1018.8hPa SSW 1.0mph /  1.6km/h 5.0mph /  8km/h 80% 0.00in /  0mm
04:14 59.5 °F /  15.3 °C 53.3 °F /  11.8 °C 30.09in /  1018.8hPa Calm   6.0mph /  9.7km/h 80% 0.00in /  0mm
04:20 59.5 °F /  15.3 °C 53.3 °F /  11.8 °C 30.09in /  1018.8hPa Calm   6.0mph /  9.7km/h 80% 0.00in /  0mm
04:25 59.5 °F /  15.3 °C 53.3 °F /  11.8 °C 30.09in /  1018.8hPa SW 1.0mph /  1.6km/h 5.0mph /  8km/h 80% 0.00in /  0mm
04:29 59.5 °F /  15.3 °C 53.3 °F /  11.8 °C 30.10in /  1019.2hPa SW 1.0mph /  1.6km/h 5.0mph /  8km/h 80% 0.00in /  0mm
04:35 59.5 °F /  15.3 °C 53.3 °F /  11.8 °C 30.10in /  1019.2hPa Calm   5.0mph /  8km/h 80% 0.00in /  0mm
04:40 59.4 °F /  15.2 °C 53.2 °F /  11.8 °C 30.10in /  1019.2hPa Calm   5.0mph /  8km/h 80% 0.00in /  0mm
04:45 59.4 °F /  15.2 °C 53.2 °F /  11.8 °C 30.10in /  1019.2hPa Calm   5.0mph /  8km/h 80% 0.00in /  0mm
04:50 59.4 °F /  15.2 °C 53.2 °F /  11.8 °C 30.10in /  1019.2hPa Calm   5.0mph /  8km/h 80% 0.00in /  0mm
04:54 59.3 °F /  15.2 °C 53.1 °F /  11.7 °C 30.09in /  1018.8hPa SSW 1.0mph /  1.6km/h 5.0mph /  8km/h 80% 0.00in /  0mm
05:00 59.3 °F /  15.2 °C 53.1 °F /  11.7 °C 30.09in /  1018.8hPa Calm   5.0mph /  8km/h 80% 0.00in /  0mm
05:05 59.2 °F /  15.1 °C 53.0 °F /  11.7 °C 30.09in /  1018.8hPa SSW 1.0mph /  1.6km/h 6.0mph /  9.7km/h 80% 0.00in /  0mm
05:09 59.0 °F /  15 °C 52.8 °F /  11.6 °C 30.09in /  1018.8hPa SW 1.0mph /  1.6km/h 6.0mph /  9.7km/h 80% 0.00in /  0mm
05:14 59.0 °F /  15 °C 52.8 °F /  11.6 °C 30.09in /  1018.8hPa SSW 2.0mph /  3.2km/h 6.0mph /  9.7km/h 80% 0.00in /  0mm
05:20 59.0 °F /  15 °C 52.8 °F /  11.6 °C 30.09in /  1018.8hPa Calm   6.0mph /  9.7km/h 80% 0.00in /  0mm
05:25 59.0 °F /  15 °C 52.8 °F /  11.6 °C 30.09in /  1018.8hPa SSW 1.0mph /  1.6km/h 7.0mph /  11.3km/h 80% 0.00in /  0mm
05:29 59.0 °F /  15 °C 52.8 °F /  11.6 °C 30.09in /  1018.8hPa SSW 1.0mph /  1.6km/h 7.0mph /  11.3km/h 80% 0.00in /  0mm
05:35 59.0 °F /  15 °C 52.8 °F /  11.6 °C 30.09in /  1018.8hPa Calm   7.0mph /  11.3km/h 80% 0.00in /  0mm
05:40 59.0 °F /  15 °C 52.8 °F /  11.6 °C 30.09in /  1018.8hPa SW 1.0mph /  1.6km/h 5.0mph /  8km/h 80% 0.00in /  0mm
05:44 58.9 °F /  14.9 °C 53.1 °F /  11.7 °C 30.09in /  1018.8hPa Calm   5.0mph /  8km/h 81% 0.00in /  0mm
05:49 58.9 °F /  14.9 °C 53.1 °F /  11.7 °C 30.09in /  1018.8hPa SSW 1.0mph /  1.6km/h 6.0mph /  9.7km/h 81% 0.00in /  0mm
05:55 59.0 °F /  15 °C 53.2 °F /  11.8 °C 30.09in /  1018.8hPa SSW 1.0mph /  1.6km/h 7.0mph /  11.3km/h 81% 0.00in /  0mm
05:59 59.0 °F /  15 °C 52.8 °F /  11.6 °C 30.09in /  1018.8hPa SSW 2.0mph /  3.2km/h 8.0mph /  12.9km/h 80% 0.00in /  0mm
06:05 59.0 °F /  15 °C 52.8 °F /  11.6 °C 30.09in /  1018.8hPa SW 1.0mph /  1.6km/h 8.0mph /  12.9km/h 80% 0.00in /  0mm
06:10 59.0 °F /  15 °C 52.8 °F /  11.6 °C 30.09in /  1018.8hPa SSW 1.0mph /  1.6km/h 8.0mph /  12.9km/h 80% 0.00in /  0mm
06:14 59.0 °F /  15 °C 52.8 °F /  11.6 °C 30.09in /  1018.8hPa SW 1.0mph /  1.6km/h 7.0mph /  11.3km/h 80% 0.00in /  0mm
06:19 59.0 °F /  15 °C 52.8 °F /  11.6 °C 30.09in /  1018.8hPa Calm   7.0mph /  11.3km/h 80% 0.00in /  0mm
06:25 59.2 °F /  15.1 °C 53.0 °F /  11.7 °C 30.09in /  1018.8hPa SW 1.0mph /  1.6km/h 8.0mph /  12.9km/h 80% 0.00in /  0mm
06:30 59.3 °F /  15.2 °C 53.1 °F /  11.7 °C 30.09in /  1018.8hPa Calm   8.0mph /  12.9km/h 80% 0.00in /  0mm
06:34 59.4 °F /  15.2 °C 53.2 °F /  11.8 °C 30.09in /  1018.8hPa SSW 1.0mph /  1.6km/h 7.0mph /  11.3km/h 80% 0.00in /  0mm
06:40 59.6 °F /  15.3 °C 53.4 °F /  11.9 °C 30.10in /  1019.2hPa SSW 3.0mph /  4.8km/h 7.0mph /  11.3km/h 80% 0.00in /  0mm
06:44 59.9 °F /  15.5 °C 53.7 °F /  12.1 °C 30.10in /  1019.2hPa SSW 2.0mph /  3.2km/h 8.0mph /  12.9km/h 80% 0.00in /  0mm
06:50 60.2 °F /  15.7 °C 54.0 °F /  12.2 °C 30.10in /  1019.2hPa SSW 1.0mph /  1.6km/h 12.0mph /  19.3km/h 80% 0.00in /  0mm
06:55 60.5 °F /  15.8 °C 54.0 °F /  12.2 °C 30.10in /  1019.2hPa SSW 2.0mph /  3.2km/h 12.0mph /  19.3km/h 79% 0.00in /  0mm
06:59 60.9 °F /  16.1 °C 54.3 °F /  12.4 °C 30.10in /  1019.2hPa SSW 4.0mph /  6.4km/h 10.0mph /  16.1km/h 79% 0.00in /  0mm
07:04 61.4 °F /  16.3 °C 54.5 °F /  12.5 °C 30.10in /  1019.2hPa SW 2.0mph /  3.2km/h 10.0mph /  16.1km/h 78% 0.00in /  0mm
07:10 62.0 °F /  16.7 °C 55.1 °F /  12.8 °C 30.10in /  1019.2hPa SSW 3.0mph /  4.8km/h 14.0mph /  22.5km/h 78% 0.00in /  0mm
07:15 62.5 °F /  16.9 °C 55.2 °F /  12.9 °C 30.10in /  1019.2hPa SW 4.0mph /  6.4km/h 14.0mph /  22.5km/h 77% 0.00in /  0mm
07:19 62.6 °F /  17 °C 54.9 °F /  12.7 °C 30.10in /  1019.2hPa SSW 2.0mph /  3.2km/h 15.0mph /  24.1km/h 76% 0.00in /  0mm
07:24 62.7 °F /  17.1 °C 55.0 °F /  12.8 °C 30.10in /  1019.2hPa SW 7.0mph /  11.3km/h 15.0mph /  24.1km/h 76% 0.00in /  0mm
07:30 63.0 °F /  17.2 °C 55.3 °F /  12.9 °C 30.10in /  1019.2hPa SSW 5.0mph /  8km/h 15.0mph /  24.1km/h 76% 0.00in /  0mm
07:34 62.8 °F /  17.1 °C 54.8 °F /  12.7 °C 30.10in /  1019.2hPa SSW 7.0mph /  11.3km/h 18.0mph /  29km/h 75% 0.00in /  0mm
07:40 62.7 °F /  17.1 °C 55.0 °F /  12.8 °C 30.11in /  1019.5hPa South 5.0mph /  8km/h 18.0mph /  29km/h 76% 0.00in /  0mm
07:44 62.5 °F /  16.9 °C 54.8 °F /  12.7 °C 30.11in /  1019.5hPa SSW 6.0mph /  9.7km/h 13.0mph /  20.9km/h 76% 0.00in /  0mm
07:49 62.5 °F /  16.9 °C 55.2 °F /  12.9 °C 30.11in /  1019.5hPa SSW 4.0mph /  6.4km/h 13.0mph /  20.9km/h 77% 0.00in /  0mm
07:54 63.1 °F /  17.3 °C 55.8 °F /  13.2 °C 30.11in /  1019.5hPa SSW 7.0mph /  11.3km/h 13.0mph /  20.9km/h 77% 0.00in /  0mm
07:59 63.4 °F /  17.4 °C 55.3 °F /  12.9 °C 30.11in /  1019.5hPa SSW 6.0mph /  9.7km/h 16.0mph /  25.7km/h 75% 0.00in /  0mm
08:04 63.7 °F /  17.6 °C 55.6 °F /  13.1 °C 30.11in /  1019.5hPa SW 6.0mph /  9.7km/h 16.0mph /  25.7km/h 75% 0.00in /  0mm
08:10 63.8 °F /  17.7 °C 55.7 °F /  13.2 °C 30.10in /  1019.2hPa SSW 6.0mph /  9.7km/h 12.0mph /  19.3km/h 75% 0.00in /  0mm
08:14 64.2 °F /  17.9 °C 56.1 °F /  13.4 °C 30.10in /  1019.2hPa South 3.0mph /  4.8km/h 12.0mph /  19.3km/h 75% 0.00in /  0mm
08:19 64.6 °F /  18.1 °C 56.1 °F /  13.4 °C 30.10in /  1019.2hPa SW 4.0mph /  6.4km/h 14.0mph /  22.5km/h 74% 0.00in /  0mm
08:24 64.8 °F /  18.2 °C 56.0 °F /  13.3 °C 30.10in /  1019.2hPa SSW 6.0mph /  9.7km/h 14.0mph /  22.5km/h 73% 0.00in /  0mm
08:30 65.0 °F /  18.3 °C 56.1 °F /  13.4 °C 30.10in /  1019.2hPa SW 6.0mph /  9.7km/h 14.0mph /  22.5km/h 73% 0.00in /  0mm
08:34 65.3 °F /  18.5 °C 56.4 °F /  13.6 °C 30.10in /  1019.2hPa SW 3.0mph /  4.8km/h 18.0mph /  29km/h 73% 0.00in /  0mm
08:39 65.7 °F /  18.7 °C 56.8 °F /  13.8 °C 30.10in /  1019.2hPa SSW 2.0mph /  3.2km/h 18.0mph /  29km/h 73% 0.00in /  0mm
08:44 66.2 °F /  19 °C 57.7 °F /  14.3 °C 30.10in /  1019.2hPa SSW 1.0mph /  1.6km/h 12.0mph /  19.3km/h 74% 0.00in /  0mm
08:50 66.5 °F /  19.2 °C 57.2 °F /  14 °C 30.10in /  1019.2hPa SSW 3.0mph /  4.8km/h 12.0mph /  19.3km/h 72% 0.00in /  0mm
08:54 67.0 °F /  19.4 °C 57.7 °F /  14.3 °C 30.10in /  1019.2hPa SW 3.0mph /  4.8km/h 12.0mph /  19.3km/h 72% 0.00in /  0mm
08:59 67.4 °F /  19.7 °C 57.7 °F /  14.3 °C 30.10in /  1019.2hPa South 2.0mph /  3.2km/h 10.0mph /  16.1km/h 71% 0.00in /  0mm
09:05 67.6 °F /  19.8 °C 57.5 °F /  14.2 °C 30.09in /  1018.8hPa SSW 6.0mph /  9.7km/h 17.0mph /  27.4km/h 70% 0.00in /  0mm
09:09 67.5 °F /  19.7 °C 57.0 °F /  13.9 °C 30.09in /  1018.8hPa SSW 5.0mph /  8km/h 17.0mph /  27.4km/h 69% 0.00in /  0mm
09:14 67.3 °F /  19.6 °C 57.2 °F /  14 °C 30.09in /  1018.8hPa South 6.0mph /  9.7km/h 14.0mph /  22.5km/h 70% 0.00in /  0mm
09:20 67.3 °F /  19.6 °C 57.6 °F /  14.2 °C 30.09in /  1018.8hPa SSW 3.0mph /  4.8km/h 16.0mph /  25.7km/h 71% 0.00in /  0mm
09:24 67.8 °F /  19.9 °C 58.1 °F /  14.5 °C 30.09in /  1018.8hPa SW 4.0mph /  6.4km/h 16.0mph /  25.7km/h 71% 0.00in /  0mm
09:29 68.0 °F /  20 °C 57.9 °F /  14.4 °C 30.09in /  1018.8hPa SSW 4.0mph /  6.4km/h 11.0mph /  17.7km/h 70% 0.00in /  0mm
09:34 68.1 °F /  20.1 °C 58.0 °F /  14.4 °C 30.09in /  1018.8hPa SSW 3.0mph /  4.8km/h 11.0mph /  17.7km/h 70% 0.00in /  0mm
09:40 68.2 °F /  20.1 °C 58.1 °F /  14.5 °C 30.09in /  1018.8hPa SSW 3.0mph /  4.8km/h 10.0mph /  16.1km/h 70% 0.00in /  0mm
09:44 68.3 °F /  20.2 °C 58.1 °F /  14.5 °C 30.09in /  1018.8hPa SW 2.0mph /  3.2km/h 13.0mph /  20.9km/h 70% 0.00in /  0mm
09:49 68.5 °F /  20.3 °C 59.1 °F /  15.1 °C 30.09in /  1018.8hPa SSW 2.0mph /  3.2km/h 13.0mph /  20.9km/h 72% 0.00in /  0mm
09:55 69.0 °F /  20.6 °C 58.4 °F /  14.7 °C 30.09in /  1018.8hPa SW 7.0mph /  11.3km/h 13.0mph /  20.9km/h 69% 0.00in /  0mm
09:59 68.8 °F /  20.4 °C 58.6 °F /  14.8 °C 30.09in /  1018.8hPa SSW 4.0mph /  6.4km/h 14.0mph /  22.5km/h 70% 0.00in /  0mm
10:05 68.6 °F /  20.3 °C 58.4 °F /  14.7 °C 30.09in /  1018.8hPa SW 7.0mph /  11.3km/h 16.0mph /  25.7km/h 70% 0.00in /  0mm
10:09 68.6 °F /  20.3 °C 58.8 °F /  14.9 °C 30.09in /  1018.8hPa SW 5.0mph /  8km/h 16.0mph /  25.7km/h 71% 0.00in /  0mm
10:14 68.7 °F /  20.4 °C 58.1 °F /  14.5 °C 30.09in /  1018.8hPa SSW 6.0mph /  9.7km/h 15.0mph /  24.1km/h 69% 0.00in /  0mm
10:19 69.1 °F /  20.6 °C 58.5 °F /  14.7 °C 30.09in /  1018.8hPa SW 6.0mph /  9.7km/h 15.0mph /  24.1km/h 69% 0.00in /  0mm
10:25 69.5 °F /  20.8 °C 59.7 °F /  15.4 °C 30.09in /  1018.8hPa South 4.0mph /  6.4km/h 15.0mph /  24.1km/h 71% 0.00in /  0mm
10:29 69.5 °F /  20.8 °C 59.3 °F /  15.2 °C 30.09in /  1018.8hPa South 2.0mph /  3.2km/h 12.0mph /  19.3km/h 70% 0.00in /  0mm
10:34 69.4 °F /  20.8 °C 59.2 °F /  15.1 °C 30.09in /  1018.8hPa SSW 4.0mph /  6.4km/h 9.0mph /  14.5km/h 70% 0.00in /  0mm
10:40 70.0 °F /  21.1 °C 60.2 °F /  15.7 °C 30.08in /  1018.5hPa SW 5.0mph /  8km/h 13.0mph /  20.9km/h 71% 0.00in /  0mm
10:44 69.1 °F /  20.6 °C 58.5 °F /  14.7 °C 30.09in /  1018.8hPa SW 4.0mph /  6.4km/h 14.0mph /  22.5km/h 69% 0.00in /  0mm
10:49 69.0 °F /  20.6 °C 58.8 °F /  14.9 °C 30.09in /  1018.8hPa SSW 3.0mph /  4.8km/h 14.0mph /  22.5km/h 70% 0.00in /  0mm
10:54 69.8 °F /  21 °C 61.1 °F /  16.2 °C 30.08in /  1018.5hPa SSW 2.0mph /  3.2km/h 15.0mph /  24.1km/h 74% 0.00in /  0mm
11:00 70.6 °F /  21.4 °C 60.4 °F /  15.8 °C 30.08in /  1018.5hPa SW 4.0mph /  6.4km/h 15.0mph /  24.1km/h 70% 0.00in /  0mm
11:04 71.1 °F /  21.7 °C 61.2 °F /  16.2 °C 30.08in /  1018.5hPa SW 2.0mph /  3.2km/h 13.0mph /  20.9km/h 71% 0.00in /  0mm
11:09 71.3 °F /  21.8 °C 60.6 °F /  15.9 °C 30.08in /  1018.5hPa SSW 6.0mph /  9.7km/h 13.0mph /  20.9km/h 69% 0.00in /  0mm
11:15 70.9 °F /  21.6 °C 59.4 °F /  15.2 °C 30.08in /  1018.5hPa SW 7.0mph /  11.3km/h 14.0mph /  22.5km/h 67% 0.00in /  0mm
11:20 70.8 °F /  21.6 °C 60.1 °F /  15.6 °C 30.08in /  1018.5hPa SW 6.0mph /  9.7km/h 15.0mph /  24.1km/h 69% 0.00in /  0mm
11:25 71.3 °F /  21.8 °C 61.8 °F /  16.6 °C 30.07in /  1018.2hPa South 3.0mph /  4.8km/h 15.0mph /  24.1km/h 72% 0.00in /  0mm
11:30 71.8 °F /  22.1 °C 61.5 °F /  16.4 °C 30.07in /  1018.2hPa South 5.0mph /  8km/h 12.0mph /  19.3km/h 70% 0.00in /  0mm
11:35 71.9 °F /  22.2 °C 60.4 °F /  15.8 °C 30.07in /  1018.2hPa SSW 8.0mph /  12.9km/h 14.0mph /  22.5km/h 67% 0.00in /  0mm
11:40 71.8 °F /  22.1 °C 60.7 °F /  15.9 °C 30.07in /  1018.2hPa SSW 2.0mph /  3.2km/h 14.0mph /  22.5km/h 68% 0.00in /  0mm
11:45 72.1 °F /  22.3 °C 60.6 °F /  15.9 °C 30.07in /  1018.2hPa SSW 6.0mph /  9.7km/h 11.0mph /  17.7km/h 67% 0.00in /  0mm
11:50 72.1 °F /  22.3 °C 61.0 °F /  16.1 °C 30.07in /  1018.2hPa SW 7.0mph /  11.3km/h 14.0mph /  22.5km/h 68% 0.00in /  0mm
11:55 72.4 °F /  22.4 °C 60.8 °F /  16 °C 30.07in /  1018.2hPa SSW 6.0mph /  9.7km/h 14.0mph /  22.5km/h 67% 0.00in /  0mm
12:00 72.4 °F /  22.4 °C 61.7 °F /  16.5 °C 30.07in /  1018.2hPa SSW 6.0mph /  9.7km/h 14.0mph /  22.5km/h 69% 0.00in /  0mm
12:05 72.6 °F /  22.6 °C 61.9 °F /  16.6 °C 30.07in /  1018.2hPa WSW 3.0mph /  4.8km/h 14.0mph /  22.5km/h 69% 0.00in /  0mm
12:10 72.7 °F /  22.6 °C 61.1 °F /  16.2 °C 30.06in /  1017.8hPa South 5.0mph /  8km/h 14.0mph /  22.5km/h 67% 0.00in /  0mm
12:15 72.9 °F /  22.7 °C 61.3 °F /  16.3 °C 30.06in /  1017.8hPa SW 4.0mph /  6.4km/h 14.0mph /  22.5km/h 67% 0.00in /  0mm
12:20 73.2 °F /  22.9 °C 61.6 °F /  16.4 °C 30.06in /  1017.8hPa SW 8.0mph /  12.9km/h 14.0mph /  22.5km/h 67% 0.00in /  0mm
12:25 73.4 °F /  23 °C 62.2 °F /  16.8 °C 30.06in /  1017.8hPa South 3.0mph /  4.8km/h 14.0mph /  22.5km/h 68% 0.00in /  0mm
12:30 73.6 °F /  23.1 °C 61.6 °F /  16.4 °C 30.06in /  1017.8hPa SSW 6.0mph /  9.7km/h 12.0mph /  19.3km/h 66% 0.00in /  0mm
12:35 73.7 °F /  23.2 °C 62.5 °F /  16.9 °C 30.06in /  1017.8hPa SSW 7.0mph /  11.3km/h 18.0mph /  29km/h 68% 0.00in /  0mm
12:40 74.1 °F /  23.4 °C 62.0 °F /  16.7 °C 30.05in /  1017.5hPa SSW 5.0mph /  8km/h 18.0mph /  29km/h 66% 0.00in /  0mm
12:45 74.3 °F /  23.5 °C 62.2 °F /  16.8 °C 30.05in /  1017.5hPa South 4.0mph /  6.4km/h 12.0mph /  19.3km/h 66% 0.00in /  0mm
12:50 74.7 °F /  23.7 °C 63.4 °F /  17.4 °C 30.05in /  1017.5hPa SSW 3.0mph /  4.8km/h 12.0mph /  19.3km/h 68% 0.00in /  0mm
12:55 74.7 °F /  23.7 °C 61.3 °F /  16.3 °C 30.05in /  1017.5hPa SSW 4.0mph /  6.4km/h 12.0mph /  19.3km/h 63% 0.00in /  0mm
13:00 75.3 °F /  24.1 °C 64.4 °F /  18 °C 30.04in /  1017.2hPa South 2.0mph /  3.2km/h 12.0mph /  19.3km/h 69% 0.00in /  0mm
13:05 75.8 °F /  24.3 °C 64.1 °F /  17.8 °C 30.04in /  1017.2hPa Calm   7.0mph /  11.3km/h 67% 0.00in /  0mm
13:10 75.8 °F /  24.3 °C 61.9 °F /  16.6 °C 30.04in /  1017.2hPa WSW 4.0mph /  6.4km/h 9.0mph /  14.5km/h 62% 0.00in /  0mm
13:15 75.8 °F /  24.3 °C 63.2 °F /  17.3 °C 30.04in /  1017.2hPa WSW 1.0mph /  1.6km/h 10.0mph /  16.1km/h 65% 0.00in /  0mm
13:20 76.4 °F /  24.7 °C 64.2 °F /  17.9 °C 30.04in /  1017.2hPa SSW 4.0mph /  6.4km/h 10.0mph /  16.1km/h 66% 0.00in /  0mm
13:25 76.5 °F /  24.7 °C 63.4 °F /  17.4 °C 30.03in /  1016.8hPa SW 6.0mph /  9.7km/h 10.0mph /  16.1km/h 64% 0.00in /  0mm
13:30 76.4 °F /  24.7 °C 63.8 °F /  17.7 °C 30.03in /  1016.8hPa SSW 2.0mph /  3.2km/h 10.0mph /  16.1km/h 65% 0.00in /  0mm
13:35 76.3 °F /  24.6 °C 62.3 °F /  16.8 °C 30.03in /  1016.8hPa SSW 4.0mph /  6.4km/h 10.0mph /  16.1km/h 62% 0.00in /  0mm
13:40 76.2 °F /  24.6 °C 64.5 °F /  18.1 °C 30.03in /  1016.8hPa SW 4.0mph /  6.4km/h 10.0mph /  16.1km/h 67% 0.00in /  0mm
13:45 76.3 °F /  24.6 °C 63.7 °F /  17.6 °C 30.02in /  1016.5hPa WSW 4.0mph /  6.4km/h 10.0mph /  16.1km/h 65% 0.00in /  0mm
13:50 76.7 °F /  24.8 °C 64.1 °F /  17.8 °C 30.02in /  1016.5hPa SW 2.0mph /  3.2km/h 10.0mph /  16.1km/h 65% 0.00in /  0mm
13:55 77.1 °F /  25.1 °C 63.6 °F /  17.6 °C 30.02in /  1016.5hPa SSW 1.0mph /  1.6km/h 9.0mph /  14.5km/h 63% 0.00in /  0mm
14:00 77.5 °F /  25.3 °C 63.9 °F /  17.7 °C 30.02in /  1016.5hPa South 2.0mph /  3.2km/h 8.0mph /  12.9km/h 63% 0.00in /  0mm
14:05 78.0 °F /  25.6 °C 65.3 °F /  18.5 °C 30.02in /  1016.5hPa SW 2.0mph /  3.2km/h 11.0mph /  17.7km/h 65% 0.00in /  0mm
14:10 78.1 °F /  25.6 °C 64.9 °F /  18.3 °C 30.01in /  1016.1hPa Calm   11.0mph /  17.7km/h 64% 0.00in /  0mm
14:15 78.5 °F /  25.8 °C 64.9 °F /  18.3 °C 30.01in /  1016.1hPa SSW 2.0mph /  3.2km/h 7.0mph /  11.3km/h 63% 0.00in /  0mm
14:20 78.5 °F /  25.8 °C 64.9 °F /  18.3 °C 30.01in /  1016.1hPa Calm   7.0mph /  11.3km/h 63% 0.00in /  0mm
14:25 78.5 °F /  25.8 °C 64.4 °F /  18 °C 30.01in /  1016.1hPa WSW 1.0mph /  1.6km/h 7.0mph /  11.3km/h 62% 0.00in /  0mm
14:30 78.8 °F /  26 °C 64.7 °F /  18.2 °C 30.01in /  1016.1hPa WSW 1.0mph /  1.6km/h 6.0mph /  9.7km/h 62% 0.00in /  0mm
14:35 79.1 °F /  26.2 °C 65.0 °F /  18.3 °C 30.01in /  1016.1hPa Calm   8.0mph /  12.9km/h 62% 0.00in /  0mm
14:40 78.9 °F /  26.1 °C 63.9 °F /  17.7 °C 30.00in /  1015.8hPa SSW 5.0mph /  8km/h 8.0mph /  12.9km/h 60% 0.00in /  0mm
14:45 78.7 °F /  25.9 °C 64.6 °F /  18.1 °C 30.00in /  1015.8hPa WSW 4.0mph /  6.4km/h 10.0mph /  16.1km/h 62% 0.00in /  0mm
14:50 78.6 °F /  25.9 °C 65.0 °F /  18.3 °C 30.00in /  1015.8hPa SW 2.0mph /  3.2km/h 10.0mph /  16.1km/h 63% 0.00in /  0mm
14:55 78.6 °F /  25.9 °C 64.0 °F /  17.8 °C 30.00in /  1015.8hPa SW 7.0mph /  11.3km/h 12.0mph /  19.3km/h 61% 0.00in /  0mm
15:00 78.4 °F /  25.8 °C 65.2 °F /  18.4 °C 29.99in /  1015.5hPa SSW 1.0mph /  1.6km/h 12.0mph /  19.3km/h 64% 0.00in /  0mm
15:05 78.4 °F /  25.8 °C 63.9 °F /  17.7 °C 29.99in /  1015.5hPa SW 5.0mph /  8km/h 12.0mph /  19.3km/h 61% 0.00in /  0mm
15:10 78.4 °F /  25.8 °C 63.4 °F /  17.4 °C 29.99in /  1015.5hPa WSW 4.0mph /  6.4km/h 12.0mph /  19.3km/h 60% 0.00in /  0mm
15:15 78.7 °F /  25.9 °C 65.1 °F /  18.4 °C 29.98in /  1015.1hPa WSW 4.0mph /  6.4km/h 11.0mph /  17.7km/h 63% 0.00in /  0mm
15:20 78.3 °F /  25.7 °C 63.3 °F /  17.4 °C 29.99in /  1015.5hPa SSW 6.0mph /  9.7km/h 11.0mph /  17.7km/h 60% 0.00in /  0mm
15:25 78.4 °F /  25.8 °C 64.3 °F /  17.9 °C 29.98in /  1015.1hPa SSW 5.0mph /  8km/h 11.0mph /  17.7km/h 62% 0.00in /  0mm
15:30 78.4 °F /  25.8 °C 64.8 °F /  18.2 °C 29.98in /  1015.1hPa SSW 1.0mph /  1.6km/h 11.0mph /  17.7km/h 63% 0.00in /  0mm
15:35 78.9 °F /  26.1 °C 64.3 °F /  17.9 °C 29.98in /  1015.1hPa SW 3.0mph /  4.8km/h 11.0mph /  17.7km/h 61% 0.00in /  0mm
15:40 78.8 °F /  26 °C 64.2 °F /  17.9 °C 29.98in /  1015.1hPa SW 3.0mph /  4.8km/h 12.0mph /  19.3km/h 61% 0.00in /  0mm
15:45 78.9 °F /  26.1 °C 64.8 °F /  18.2 °C 29.98in /  1015.1hPa SW 3.0mph /  4.8km/h 12.0mph /  19.3km/h 62% 0.00in /  0mm
15:50 79.2 °F /  26.2 °C 63.7 °F /  17.6 °C 29.98in /  1015.1hPa WSW 1.0mph /  1.6km/h 9.0mph /  14.5km/h 59% 0.00in /  0mm
15:55 79.6 °F /  26.4 °C 63.5 °F /  17.5 °C 29.98in /  1015.1hPa SW 4.0mph /  6.4km/h 10.0mph /  16.1km/h 58% 0.00in /  0mm
16:05 79.3 °F /  26.3 °C 63.3 °F /  17.4 °C 29.97in /  1014.8hPa SSW 4.0mph /  6.4km/h 11.0mph /  17.7km/h 58% 0.00in /  0mm
16:15 79.2 °F /  26.2 °C 63.7 °F /  17.6 °C 29.97in /  1014.8hPa SW 3.0mph /  4.8km/h 13.0mph /  20.9km/h 59% 0.00in /  0mm
16:20 78.7 °F /  25.9 °C 62.2 °F /  16.8 °C 29.97in /  1014.8hPa SW 5.0mph /  8km/h 13.0mph /  20.9km/h 57% 0.00in /  0mm
16:25 78.3 °F /  25.7 °C 62.8 °F /  17.1 °C 29.97in /  1014.8hPa WSW 3.0mph /  4.8km/h 13.0mph /  20.9km/h 59% 0.00in /  0mm
16:30 78.2 °F /  25.7 °C 62.7 °F /  17.1 °C 29.96in /  1014.4hPa SW 4.0mph /  6.4km/h 13.0mph /  20.9km/h 59% 0.00in /  0mm
16:35 78.5 °F /  25.8 °C 63.0 °F /  17.2 °C 29.97in /  1014.8hPa SW 3.0mph /  4.8km/h 12.0mph /  19.3km/h 59% 0.00in /  0mm
16:40 78.3 °F /  25.7 °C 61.8 °F /  16.6 °C 29.96in /  1014.4hPa SW 5.0mph /  8km/h 12.0mph /  19.3km/h 57% 0.00in /  0mm
16:45 78.2 °F /  25.7 °C 62.2 °F /  16.8 °C 29.96in /  1014.4hPa SW 4.0mph /  6.4km/h 14.0mph /  22.5km/h 58% 0.00in /  0mm
16:50 78.0 °F /  25.6 °C 61.1 °F /  16.2 °C 29.96in /  1014.4hPa SW 6.0mph /  9.7km/h 14.0mph /  22.5km/h 56% 0.00in /  0mm
16:55 78.0 °F /  25.6 °C 62.0 °F /  16.7 °C 29.96in /  1014.4hPa SW 3.0mph /  4.8km/h 12.0mph /  19.3km/h 58% 0.00in /  0mm
17:00 78.4 °F /  25.8 °C 62.4 °F /  16.9 °C 29.95in /  1014.1hPa SW 3.0mph /  4.8km/h 9.0mph /  14.5km/h 58% 0.00in /  0mm
17:05 78.2 °F /  25.7 °C 61.2 °F /  16.2 °C 29.95in /  1014.1hPa SW 4.0mph /  6.4km/h 12.0mph /  19.3km/h 56% 0.00in /  0mm
17:10 78.1 °F /  25.6 °C 62.6 °F /  17 °C 29.95in /  1014.1hPa SSW 3.0mph /  4.8km/h 12.0mph /  19.3km/h 59% 0.00in /  0mm
17:15 78.2 °F /  25.7 °C 62.2 °F /  16.8 °C 29.95in /  1014.1hPa South 4.0mph /  6.4km/h 12.0mph /  19.3km/h 58% 0.00in /  0mm
17:20 78.4 °F /  25.8 °C 61.4 °F /  16.3 °C 29.95in /  1014.1hPa South 4.0mph /  6.4km/h 12.0mph /  19.3km/h 56% 0.00in /  0mm
17:25 78.3 °F /  25.7 °C 61.8 °F /  16.6 °C 29.95in /  1014.1hPa SSW 3.0mph /  4.8km/h 10.0mph /  16.1km/h 57% 0.00in /  0mm
17:30 78.3 °F /  25.7 °C 62.3 °F /  16.8 °C 29.95in /  1014.1hPa SW 4.0mph /  6.4km/h 10.0mph /  16.1km/h 58% 0.00in /  0mm
17:35 78.2 °F /  25.7 °C 60.7 °F /  15.9 °C 29.95in /  1014.1hPa SSW 5.0mph /  8km/h 10.0mph /  16.1km/h 55% 0.00in /  0mm
17:40 77.6 °F /  25.3 °C 60.7 °F /  15.9 °C 29.94in /  1013.8hPa SSW 6.0mph /  9.7km/h 13.0mph /  20.9km/h 56% 0.00in /  0mm
17:45 77.6 °F /  25.3 °C 60.2 °F /  15.7 °C 29.94in /  1013.8hPa WSW 1.0mph /  1.6km/h 13.0mph /  20.9km/h 55% 0.00in /  0mm
17:50 77.8 °F /  25.4 °C 60.9 °F /  16.1 °C 29.94in /  1013.8hPa SW 3.0mph /  4.8km/h 8.0mph /  12.9km/h 56% 0.00in /  0mm
17:55 77.9 °F /  25.5 °C 61.0 °F /  16.1 °C 29.94in /  1013.8hPa SW 2.0mph /  3.2km/h 8.0mph /  12.9km/h 56% 0.00in /  0mm
18:00 78.0 °F /  25.6 °C 60.5 °F /  15.8 °C 29.94in /  1013.8hPa SSW 4.0mph /  6.4km/h 8.0mph /  12.9km/h 55% 0.00in /  0mm
18:05 77.6 °F /  25.3 °C 61.2 °F /  16.2 °C 29.93in /  1013.4hPa SW 4.0mph /  6.4km/h 10.0mph /  16.1km/h 57% 0.00in /  0mm
18:10 77.3 °F /  25.2 °C 60.4 °F /  15.8 °C 29.93in /  1013.4hPa WSW 3.0mph /  4.8km/h 10.0mph /  16.1km/h 56% 0.00in /  0mm
18:15 77.2 °F /  25.1 °C 59.8 °F /  15.4 °C 29.93in /  1013.4hPa WSW 4.0mph /  6.4km/h 9.0mph /  14.5km/h 55% 0.00in /  0mm
18:20 76.9 °F /  24.9 °C 59.5 °F /  15.3 °C 29.94in /  1013.8hPa SW 4.0mph /  6.4km/h 10.0mph /  16.1km/h 55% 0.00in /  0mm
18:25 76.9 °F /  24.9 °C 59.0 °F /  15 °C 29.93in /  1013.4hPa SW 4.0mph /  6.4km/h 10.0mph /  16.1km/h 54% 0.00in /  0mm
18:30 76.7 °F /  24.8 °C 58.8 °F /  14.9 °C 29.94in /  1013.8hPa SSW 3.0mph /  4.8km/h 9.0mph /  14.5km/h 54% 0.00in /  0mm
18:35 76.2 °F /  24.6 °C 57.8 °F /  14.3 °C 29.93in /  1013.4hPa SW 4.0mph /  6.4km/h 10.0mph /  16.1km/h 53% 0.00in /  0mm
18:40 75.7 °F /  24.3 °C 57.4 °F /  14.1 °C 29.94in /  1013.8hPa SW 3.0mph /  4.8km/h 10.0mph /  16.1km/h 53% 0.00in /  0mm
18:45 75.5 °F /  24.2 °C 58.2 °F /  14.6 °C 29.94in /  1013.8hPa SW 2.0mph /  3.2km/h 10.0mph /  16.1km/h 55% 0.00in /  0mm
18:50 75.9 °F /  24.4 °C 59.1 °F /  15.1 °C 29.93in /  1013.4hPa Calm   10.0mph /  16.1km/h 56% 0.00in /  0mm
18:55 76.3 °F /  24.6 °C 59.0 °F /  15 °C 29.94in /  1013.8hPa Calm   6.0mph /  9.7km/h 55% 0.00in /  0mm
19:00 76.4 °F /  24.7 °C 59.6 °F /  15.3 °C 29.94in /  1013.8hPa SW 1.0mph /  1.6km/h 5.0mph /  8km/h 56% 0.00in /  0mm
19:05 76.4 °F /  24.7 °C 59.1 °F /  15.1 °C 29.93in /  1013.4hPa WSW 1.0mph /  1.6km/h 6.0mph /  9.7km/h 55% 0.00in /  0mm
19:10 75.8 °F /  24.3 °C 59.0 °F /  15 °C 29.93in /  1013.4hPa SSW 2.0mph /  3.2km/h 6.0mph /  9.7km/h 56% 0.00in /  0mm
19:15 75.2 °F /  24 °C 58.9 °F /  14.9 °C 29.93in /  1013.4hPa SSW 3.0mph /  4.8km/h 9.0mph /  14.5km/h 57% 0.00in /  0mm
19:20 74.9 °F /  23.8 °C 58.7 °F /  14.8 °C 29.93in /  1013.4hPa SSW 1.0mph /  1.6km/h 9.0mph /  14.5km/h 57% 0.00in /  0mm
19:25 74.9 °F /  23.8 °C 59.1 °F /  15.1 °C 29.93in /  1013.4hPa West 1.0mph /  1.6km/h 7.0mph /  11.3km/h 58% 0.00in /  0mm
19:30 74.7 °F /  23.7 °C 59.0 °F /  15 °C 29.93in /  1013.4hPa Calm   7.0mph /  11.3km/h 58% 0.00in /  0mm
19:35 74.7 °F /  23.7 °C 59.4 °F /  15.2 °C 29.94in /  1013.8hPa SW 2.0mph /  3.2km/h 7.0mph /  11.3km/h 59% 0.00in /  0mm
19:45 73.4 °F /  23 °C 58.7 °F /  14.8 °C 29.94in /  1013.8hPa SW 1.0mph /  1.6km/h 7.0mph /  11.3km/h 60% 0.00in /  0mm
19:50 72.8 °F /  22.7 °C 58.6 °F /  14.8 °C 29.94in /  1013.8hPa SSW 1.0mph /  1.6km/h 6.0mph /  9.7km/h 61% 0.00in /  0mm
19:55 72.5 °F /  22.5 °C 58.3 °F /  14.6 °C 29.94in /  1013.8hPa Calm   6.0mph /  9.7km/h 61% 0.00in /  0mm
20:00 72.4 °F /  22.4 °C 58.7 °F /  14.8 °C 29.94in /  1013.8hPa SSW 1.0mph /  1.6km/h 5.0mph /  8km/h 62% 0.00in /  0mm
20:05 72.2 °F /  22.3 °C 58.0 °F /  14.4 °C 29.94in /  1013.8hPa SSW 2.0mph /  3.2km/h 7.0mph /  11.3km/h 61% 0.00in /  0mm
20:10 72.0 °F /  22.2 °C 58.3 °F /  14.6 °C 29.94in /  1013.8hPa South 1.0mph /  1.6km/h 7.0mph /  11.3km/h 62% 0.00in /  0mm
20:15 71.7 °F /  22.1 °C 58.4 °F /  14.7 °C 29.94in /  1013.8hPa Calm   7.0mph /  11.3km/h 63% 0.00in /  0mm
20:20 71.3 °F /  21.8 °C 58.1 °F /  14.5 °C 29.94in /  1013.8hPa Calm   4.0mph /  6.4km/h 63% 0.00in /  0mm
20:25 70.6 °F /  21.4 °C 58.3 °F /  14.6 °C 29.94in /  1013.8hPa Calm   4.0mph /  6.4km/h 65% 0.00in /  0mm
20:30 70.1 °F /  21.2 °C 58.2 °F /  14.6 °C 29.95in /  1014.1hPa Calm   4.0mph /  6.4km/h 66% 0.00in /  0mm
20:35 69.5 °F /  20.8 °C 58.1 °F /  14.5 °C 29.95in /  1014.1hPa Calm   4.0mph /  6.4km/h 67% 0.00in /  0mm
20:40 68.9 °F /  20.5 °C 58.3 °F /  14.6 °C 29.95in /  1014.1hPa Calm   1.0mph /  1.6km/h 69% 0.00in /  0mm
20:45 68.2 °F /  20.1 °C 57.7 °F /  14.3 °C 29.95in /  1014.1hPa SW 1.0mph /  1.6km/h 5.0mph /  8km/h 69% 0.00in /  0mm
20:50 67.9 °F /  19.9 °C 57.8 °F /  14.3 °C 29.95in /  1014.1hPa Calm   5.0mph /  8km/h 70% 0.00in /  0mm
20:55 67.6 °F /  19.8 °C 57.9 °F /  14.4 °C 29.95in /  1014.1hPa Calm   1.0mph /  1.6km/h 71% 0.00in /  0mm
21:00 67.3 °F /  19.6 °C 58.4 °F /  14.7 °C 29.95in /  1014.1hPa Calm     73% 0.00in /  0mm
21:05 67.0 °F /  19.4 °C 57.7 °F /  14.3 °C 29.96in /  1014.4hPa Calm     72% 0.00in /  0mm
21:10 66.8 °F /  19.3 °C 57.9 °F /  14.4 °C 29.96in /  1014.4hPa Calm   1.0mph /  1.6km/h 73% 0.00in /  0mm
21:15 66.6 °F /  19.2 °C 57.7 °F /  14.3 °C 29.96in /  1014.4hPa Calm   1.0mph /  1.6km/h 73% 0.00in /  0mm
21:20 66.4 °F /  19.1 °C 57.1 °F /  13.9 °C 29.97in /  1014.8hPa Calm   1.0mph /  1.6km/h 72% 0.00in /  0mm
21:25 66.3 °F /  19.1 °C 57.8 °F /  14.3 °C 29.97in /  1014.8hPa Calm   1.0mph /  1.6km/h 74% 0.00in /  0mm
21:30 66.2 °F /  19 °C 57.7 °F /  14.3 °C 29.97in /  1014.8hPa SSW 1.0mph /  1.6km/h 4.0mph /  6.4km/h 74% 0.00in /  0mm
21:35 66.2 °F /  19 °C 58.1 °F /  14.5 °C 29.97in /  1014.8hPa Calm   4.0mph /  6.4km/h 75% 0.00in /  0mm
21:40 66.2 °F /  19 °C 56.9 °F /  13.8 °C 29.97in /  1014.8hPa Calm   4.0mph /  6.4km/h 72% 0.00in /  0mm
21:45 66.3 °F /  19.1 °C 57.0 °F /  13.9 °C 29.97in /  1014.8hPa Calm   3.0mph /  4.8km/h 72% 0.00in /  0mm
21:50 66.4 °F /  19.1 °C 56.7 °F /  13.7 °C 29.97in /  1014.8hPa Calm   3.0mph /  4.8km/h 71% 0.00in /  0mm
21:55 66.6 °F /  19.2 °C 56.9 °F /  13.8 °C 29.98in /  1015.1hPa Calm   3.0mph /  4.8km/h 71% 0.00in /  0mm
22:00 66.6 °F /  19.2 °C 56.5 °F /  13.6 °C 29.98in /  1015.1hPa Calm   3.0mph /  4.8km/h 70% 0.00in /  0mm
22:05 66.5 °F /  19.2 °C 56.4 °F /  13.6 °C 29.98in /  1015.1hPa Calm   1.0mph /  1.6km/h 70% 0.00in /  0mm
22:10 66.2 °F /  19 °C 56.1 °F /  13.4 °C 29.98in /  1015.1hPa Calm   4.0mph /  6.4km/h 70% 0.00in /  0mm
Westford Weather
Compliments of Weather Underground

 
 
Current Radar Loop:

Copyright © WestfordWeather.net 2007-2014. All rights reserved.